Time;durP1;ratioP1;P1;durP2;ratioP2;P2;SDS_P1;SDS_P2;PMS_P1;PMS_P2;Temp;Humidity;BMP_temperature;BMP_pressure;BME280_temperature;BME280_humidity;BME280_pressure;Samples;Min_cycle;Max_cycle;Signal;HPM_P1;HPM_P2
2022/08/02 00:02:20;;;;;;;6.95;6.65;;;;;;;-143.83;100.00;62900.06;5114912;28;20023;-63
2022/08/02 00:04:46;;;;;;;6.93;6.63;;;;;;;-143.83;100.00;62900.06;5109236;28;20026;-62
2022/08/02 00:07:13;;;;;;;6.85;6.55;;;;;;;-143.83;100.00;62900.06;5115010;28;20102;-62
2022/08/02 00:09:39;;;;;;;6.75;6.45;;;;;;;-143.83;100.00;62900.06;5110834;28;20016;-62
2022/08/02 00:12:05;;;;;;;6.90;6.60;;;;;;;-143.83;100.00;62900.06;5114382;28;20072;-62
2022/08/02 00:14:30;;;;;;;7.00;6.70;;;;;;;-143.83;100.00;62900.06;5114605;28;20064;-62
2022/08/02 00:16:56;;;;;;;7.07;6.78;;;;;;;-143.83;100.00;62900.06;5114409;27;20047;-63
2022/08/02 00:19:21;;;;;;;6.75;6.45;;;;;;;-143.83;100.00;62900.06;5114580;28;20538;-62
2022/08/02 00:21:47;;;;;;;6.93;6.63;;;;;;;-143.83;100.00;62900.06;5114692;28;20027;-64
2022/08/02 00:24:12;;;;;;;6.82;6.53;;;;;;;-143.83;100.00;62900.06;5114416;28;20384;-62
2022/08/02 00:26:38;;;;;;;6.90;6.60;;;;;;;-143.83;100.00;62900.06;5112883;28;20026;-62
2022/08/02 00:29:04;;;;;;;6.70;6.40;;;;;;;-143.83;100.00;62900.06;5113163;28;20368;-62
2022/08/02 00:31:29;;;;;;;6.75;6.45;;;;;;;-143.83;100.00;62900.06;5114291;27;20031;-62
2022/08/02 00:33:55;;;;;;;6.75;6.45;;;;;;;-143.83;100.00;62900.06;5113494;27;20024;-63
2022/08/02 00:36:20;;;;;;;6.63;6.32;;;;;;;-143.83;100.00;62900.06;5114510;28;20030;-63
2022/08/02 00:38:47;;;;;;;6.97;6.68;;;;;;;-143.83;100.00;62900.06;5112965;28;20033;-62
2022/08/02 00:41:16;;;;;;;6.90;6.60;;;;;;;-143.83;100.00;62900.06;5114096;28;20027;-62
2022/08/02 00:43:42;;;;;;;6.90;6.60;;;;;;;-143.83;100.00;62900.06;5113921;28;20051;-63
2022/08/02 00:46:08;;;;;;;6.90;6.60;;;;;;;-143.83;100.00;62900.06;5113773;28;20027;-63
2022/08/02 00:48:34;;;;;;;6.70;6.40;;;;;;;-143.83;100.00;62900.06;5113471;28;20115;-63
2022/08/02 00:50:59;;;;;;;7.20;6.90;;;;;;;-143.83;100.00;62900.06;5108226;27;20090;-63
2022/08/02 00:53:25;;;;;;;7.07;6.78;;;;;;;-143.83;100.00;62900.06;5114208;28;20024;-62
2022/08/02 00:55:51;;;;;;;6.80;6.50;;;;;;;-143.83;100.00;62900.06;5113146;28;20028;-63
2022/08/02 00:58:16;;;;;;;7.07;6.78;;;;;;;-143.83;100.00;62900.06;5113617;28;20111;-62
2022/08/02 01:00:42;;;;;;;7.00;6.70;;;;;;;-143.83;100.00;62900.06;5110082;28;20027;-63
2022/08/02 01:03:07;;;;;;;6.80;6.50;;;;;;;-143.83;100.00;62900.06;5113734;28;20055;-62
2022/08/02 01:05:33;;;;;;;6.60;6.30;;;;;;;-143.83;100.00;62900.06;5113582;28;20019;-62
2022/08/02 01:07:58;;;;;;;6.68;6.38;;;;;;;-143.83;100.00;62900.06;5116286;27;20027;-62
2022/08/02 01:10:24;;;;;;;6.70;6.40;;;;;;;-143.83;100.00;62900.06;5118100;27;20169;-62
2022/08/02 01:12:50;;;;;;;6.80;6.50;;;;;;;-143.83;100.00;62900.06;5112518;27;20016;-62
2022/08/02 01:15:16;;;;;;;7.20;6.90;;;;;;;-143.83;100.00;62900.06;5113668;28;20141;-62
2022/08/02 01:18:02;;;;;;;6.95;6.65;;;;;;;-143.83;100.00;62900.06;5113270;28;20035;-62
2022/08/02 01:20:46;;;;;;;9.55;9.15;;;;;;;-143.83;100.00;62900.06;5112958;28;20055;-62
2022/08/02 01:23:34;;;;;;;6.80;6.50;;;;;;;-143.83;100.00;62900.06;5101751;28;20031;-63
2022/08/02 01:26:24;;;;;;;6.85;6.55;;;;;;;-143.83;100.00;62900.06;5109649;27;20020;-63
2022/08/02 01:29:17;;;;;;;6.90;6.60;;;;;;;-143.83;100.00;62900.06;5113103;28;20103;-62
2022/08/02 01:31:58;;;;;;;6.68;6.38;;;;;;;-143.83;100.00;62900.06;5113049;28;20482;-62
2022/08/02 01:34:36;;;;;;;6.93;6.63;;;;;;;-143.83;100.00;62900.06;5113288;28;20157;-62
2022/08/02 01:37:10;;;;;;;6.70;6.40;;;;;;;-143.83;100.00;62900.06;5111938;28;20161;-62
2022/08/02 01:39:38;;;;;;;6.78;6.47;;;;;;;-143.83;100.00;62900.06;5113050;28;20023;-62
2022/08/02 01:42:04;;;;;;;6.88;6.57;;;;;;;-143.83;100.00;62900.06;5112239;27;20047;-64
2022/08/02 01:44:33;;;;;;;6.78;6.47;;;;;;;-143.83;100.00;62900.06;5112716;28;20055;-63
2022/08/02 01:47:03;;;;;;;6.90;6.60;;;;;;;-143.83;100.00;62900.06;5112688;28;20380;-63
2022/08/02 01:49:32;;;;;;;6.80;6.50;;;;;;;-143.83;100.00;62900.06;5111953;28;20031;-63
2022/08/02 01:54:46;;;;;;;6.93;6.63;;;;;;;-143.83;100.00;62900.06;5112173;28;20039;-63
2022/08/02 01:57:14;;;;;;;6.90;6.60;;;;;;;-143.83;100.00;62900.06;5104433;28;20035;-62
2022/08/02 01:59:42;;;;;;;6.80;6.50;;;;;;;-143.83;100.00;62900.06;5106925;27;20027;-62
2022/08/02 02:02:09;;;;;;;6.93;6.63;;;;;;;-143.83;100.00;62900.06;5112554;28;20019;-62
2022/08/02 02:04:36;;;;;;;6.80;6.50;;;;;;;-143.83;100.00;62900.06;5112866;28;20043;-61
2022/08/02 02:07:03;;;;;;;7.00;6.70;;;;;;;-143.83;100.00;62900.06;5111652;28;20042;-62
2022/08/02 02:09:34;;;;;;;6.90;6.60;;;;;;;-143.83;100.00;62900.06;5112418;28;20434;-63
2022/08/02 02:12:01;;;;;;;6.70;6.40;;;;;;;-143.83;100.00;62900.06;5112419;28;20038;-62
2022/08/02 02:14:29;;;;;;;6.88;6.57;;;;;;;-143.83;100.00;62900.06;5111634;28;20023;-63
2022/08/02 02:16:57;;;;;;;6.60;6.30;;;;;;;-143.83;100.00;62900.06;5113011;28;20084;-63
2022/08/02 02:19:24;;;;;;;6.80;6.50;;;;;;;-143.83;100.00;62900.06;5110967;28;20131;-63
2022/08/02 02:21:50;;;;;;;6.82;6.53;;;;;;;-143.83;100.00;62900.06;5112054;28;20020;-63
2022/08/02 02:24:15;;;;;;;6.90;6.60;;;;;;;-143.83;100.00;62900.06;5112000;28;20030;-63
2022/08/02 02:26:44;;;;;;;6.60;6.30;;;;;;;-143.83;100.00;62900.06;5111071;28;20165;-64
2022/08/02 02:29:11;;;;;;;7.15;6.85;;;;;;;-143.83;100.00;62900.06;5111965;28;20475;-62
2022/08/02 02:31:39;;;;;;;6.93;6.63;;;;;;;-143.83;100.00;62900.06;5111176;28;20035;-63
2022/08/02 02:34:12;;;;;;;6.78;6.47;;;;;;;-143.83;100.00;62900.06;5113110;28;20451;-63
2022/08/02 02:36:46;;;;;;;6.93;6.63;;;;;;;-143.83;100.00;62900.06;5112126;28;20359;-62
2022/08/02 02:39:14;;;;;;;6.95;6.65;;;;;;;-143.83;100.00;62900.06;5099490;28;20032;-62
2022/08/02 02:41:42;;;;;;;6.93;6.63;;;;;;;-143.83;100.00;62900.06;5112204;28;20047;-61
2022/08/02 02:44:12;;;;;;;7.07;6.78;;;;;;;-143.83;100.00;62900.06;5111317;28;20027;-62
2022/08/02 02:46:39;;;;;;;7.07;6.78;;;;;;;-143.83;100.00;62900.06;5112013;28;20020;-63
2022/08/02 02:49:06;;;;;;;6.85;6.55;;;;;;;-143.83;100.00;62900.06;5111015;28;20417;-62
2022/08/02 02:51:32;;;;;;;6.85;6.55;;;;;;;-143.83;100.00;62900.06;5110417;28;20027;-63
2022/08/02 02:53:58;;;;;;;7.20;6.90;;;;;;;-143.83;100.00;62900.06;5104577;28;20024;-63
2022/08/02 02:56:25;;;;;;;7.07;6.78;;;;;;;-143.83;100.00;62900.06;5111701;28;20043;-62
2022/08/02 02:58:53;;;;;;;7.00;6.70;;;;;;;-143.83;100.00;62900.06;5111720;28;20031;-62
2022/08/02 03:01:31;;;;;;;6.70;6.40;;;;;;;-143.83;100.00;62900.06;5111926;28;20023;-62
2022/08/02 03:04:01;;;;;;;6.88;6.57;;;;;;;-143.83;100.00;62900.06;5111633;28;20398;-63
2022/08/02 03:06:27;;;;;;;7.00;6.70;;;;;;;-143.83;100.00;62900.06;5094292;28;20122;-62
2022/08/02 03:08:53;;;;;;;7.10;6.80;;;;;;;-143.83;100.00;62900.06;5111731;28;20074;-62
2022/08/02 03:11:19;;;;;;;6.80;6.50;;;;;;;-143.83;100.00;62900.06;5111576;28;20024;-62
2022/08/02 03:13:45;;;;;;;6.78;6.47;;;;;;;-143.83;100.00;62900.06;5110739;28;20110;-62
2022/08/02 03:16:12;;;;;;;6.97;6.68;;;;;;;-143.83;100.00;62900.06;5112212;28;20106;-62
2022/08/02 03:18:39;;;;;;;7.13;6.82;;;;;;;-143.83;100.00;62900.06;5111783;28;20023;-62
2022/08/02 03:21:10;;;;;;;6.85;6.55;;;;;;;-143.83;100.00;62900.06;5112012;28;20024;-62
2022/08/02 03:23:38;;;;;;;7.00;6.70;;;;;;;-143.83;100.00;62900.06;5111862;28;20043;-62
2022/08/02 03:26:04;;;;;;;7.15;6.85;;;;;;;-143.83;100.00;62900.06;5111942;28;20058;-62
2022/08/02 03:28:30;;;;;;;7.10;6.80;;;;;;;-143.83;100.00;62900.06;5110640;28;20081;-62
2022/08/02 03:30:56;;;;;;;6.78;6.47;;;;;;;-143.83;100.00;62900.06;5111597;28;20019;-62
2022/08/02 03:33:23;;;;;;;6.80;6.50;;;;;;;-143.83;100.00;62900.06;5111739;28;20382;-62
2022/08/02 03:35:51;;;;;;;6.63;6.32;;;;;;;-143.83;100.00;62900.06;5113687;28;20096;-62
2022/08/02 03:38:20;;;;;;;7.10;6.80;;;;;;;-143.83;100.00;62900.06;5115107;28;20027;-62
2022/08/02 03:40:47;;;;;;;6.80;6.50;;;;;;;-143.83;100.00;62900.06;5114689;27;20119;-61
2022/08/02 03:43:14;;;;;;;7.00;6.70;;;;;;;-143.83;100.00;62900.06;5113905;28;20043;-62
2022/08/02 03:45:43;;;;;;;7.00;6.70;;;;;;;-143.83;100.00;62900.06;5115344;28;20047;-63
2022/08/02 03:48:11;;;;;;;6.93;6.63;;;;;;;-143.83;100.00;62900.06;5111869;28;20096;-63
2022/08/02 03:50:37;;;;;;;6.85;6.55;;;;;;;-143.83;100.00;62900.06;5115165;28;20603;-62
2022/08/02 03:53:03;;;;;;;6.88;6.57;;;;;;;-143.83;100.00;62900.06;5115003;28;20463;-63
2022/08/02 03:55:29;;;;;;;7.55;7.25;;;;;;;-143.83;100.00;62900.06;5113878;28;20019;-62
2022/08/02 03:57:54;;;;;;;11.27;10.77;;;;;;;-143.83;100.00;62900.06;5112173;27;20110;-62
2022/08/02 04:00:22;;;;;;;10.38;9.88;;;;;;;-143.83;100.00;62900.06;5111217;27;20092;-62
2022/08/02 04:02:48;;;;;;;6.93;6.63;;;;;;;-143.83;100.00;62900.06;5113799;27;20534;-62
2022/08/02 04:05:14;;;;;;;6.90;6.60;;;;;;;-143.83;100.00;62900.06;5114838;28;20054;-63
2022/08/02 04:07:42;;;;;;;6.70;6.40;;;;;;;-143.83;100.00;62900.06;5114657;28;20020;-63
2022/08/02 04:10:08;;;;;;;7.20;6.90;;;;;;;-143.83;100.00;62900.06;5115870;27;20019;-62
2022/08/02 04:12:34;;;;;;;6.85;6.55;;;;;;;-143.83;100.00;62900.06;5114061;28;20043;-63
2022/08/02 04:15:01;;;;;;;7.20;6.90;;;;;;;-143.83;100.00;62900.06;5114585;27;20023;-63
2022/08/02 04:17:31;;;;;;;7.13;6.82;;;;;;;-143.83;100.00;62900.06;5113289;28;20035;-62
2022/08/02 04:20:02;;;;;;;7.05;6.75;;;;;;;-143.83;100.00;62900.06;5114174;28;20023;-63
2022/08/02 04:22:34;;;;;;;7.35;7.05;;;;;;;-143.83;100.00;62900.06;5114000;28;20023;-62
2022/08/02 04:25:02;;;;;;;7.35;7.05;;;;;;;-143.83;100.00;62900.06;5112799;27;20081;-62
2022/08/02 04:27:29;;;;;;;7.07;6.78;;;;;;;-143.83;100.00;62900.06;5112509;28;20080;-63
2022/08/02 04:29:57;;;;;;;7.10;6.80;;;;;;;-143.83;100.00;62900.06;5113118;28;20051;-63
2022/08/02 04:32:23;;;;;;;6.88;6.57;;;;;;;-143.83;100.00;62900.06;5105982;27;20027;-64
2022/08/02 04:34:49;;;;;;;7.05;6.75;;;;;;;-143.83;100.00;62900.06;5114123;27;20024;-64
2022/08/02 04:37:14;;;;;;;6.95;6.65;;;;;;;-143.83;100.00;62900.06;5104851;28;20501;-64
2022/08/02 04:39:41;;;;;;;7.03;6.72;;;;;;;-143.83;100.00;62900.06;5103564;28;20081;-64
2022/08/02 04:42:06;;;;;;;7.15;6.85;;;;;;;-143.83;100.00;62900.06;5113438;28;20052;-63
2022/08/02 04:44:32;;;;;;;7.03;6.72;;;;;;;-143.83;100.00;62900.06;5113048;28;20034;-63
2022/08/02 04:47:01;;;;;;;6.90;6.60;;;;;;;-143.83;100.00;62900.06;5103477;28;20016;-63
2022/08/02 04:49:27;;;;;;;6.82;6.53;;;;;;;-143.83;100.00;62900.06;5109789;27;20038;-64
2022/08/02 04:51:54;;;;;;;7.10;6.80;;;;;;;-143.83;100.00;62900.06;5107733;28;20027;-63
2022/08/02 04:54:20;;;;;;;6.90;6.60;;;;;;;-143.83;100.00;62900.06;5113488;28;20026;-63
2022/08/02 04:56:45;;;;;;;7.57;7.28;;;;;;;-143.83;100.00;62900.06;5110691;27;20398;-63
2022/08/02 04:59:11;;;;;;;6.85;6.55;;;;;;;-143.83;100.00;62900.06;5109099;27;20444;-63
2022/08/02 05:01:38;;;;;;;7.07;6.78;;;;;;;-143.83;100.00;62900.06;5109757;27;20028;-63
2022/08/02 05:04:04;;;;;;;7.40;7.10;;;;;;;-143.83;100.00;62900.06;5116798;27;20075;-63
2022/08/02 05:06:29;;;;;;;6.88;6.57;;;;;;;-143.83;100.00;62900.06;5110761;28;20035;-63
2022/08/02 05:08:55;;;;;;;7.20;6.90;;;;;;;-143.83;100.00;62900.06;5114711;27;20042;-63
2022/08/02 05:11:21;;;;;;;7.20;6.90;;;;;;;-143.83;100.00;62900.06;5128778;27;20046;-62
2022/08/02 05:13:47;;;;;;;6.88;6.57;;;;;;;-143.83;100.00;62900.06;5111837;27;20035;-63
2022/08/02 05:16:13;;;;;;;6.90;6.60;;;;;;;-143.83;100.00;62900.06;5108000;27;20049;-64
2022/08/02 05:18:38;;;;;;;7.13;6.82;;;;;;;-143.83;100.00;62900.06;5113119;28;20099;-63
2022/08/02 05:21:04;;;;;;;7.07;6.78;;;;;;;-143.83;100.00;62900.06;5113050;28;20023;-63
2022/08/02 05:23:29;;;;;;;6.88;6.57;;;;;;;-143.83;100.00;62900.06;5110615;28;20043;-64
2022/08/02 05:25:55;;;;;;;7.13;6.82;;;;;;;-143.83;100.00;62900.06;5113189;28;20422;-63
2022/08/02 05:28:20;;;;;;;7.50;7.20;;;;;;;-143.83;100.00;62900.06;5112802;28;20020;-64
2022/08/02 05:30:46;;;;;;;7.10;6.80;;;;;;;-143.83;100.00;62900.06;5112910;28;20031;-64
2022/08/02 05:33:11;;;;;;;7.30;7.00;;;;;;;-143.83;100.00;62900.06;5112738;28;20122;-64
2022/08/02 05:35:37;;;;;;;7.38;7.07;;;;;;;-143.83;100.00;62900.06;5104462;28;20080;-63
2022/08/02 05:38:02;;;;;;;7.38;7.07;;;;;;;-143.83;100.00;62900.06;5114136;27;20023;-63
2022/08/02 05:40:28;;;;;;;6.82;6.53;;;;;;;-143.83;100.00;62900.06;5110167;27;20077;-63
2022/08/02 05:42:54;;;;;;;7.45;7.15;;;;;;;-143.83;100.00;62900.06;5112500;28;20083;-63
2022/08/02 05:45:20;;;;;;;7.20;6.90;;;;;;;-143.83;100.00;62900.06;5112336;28;20027;-63
2022/08/02 05:47:45;;;;;;;7.28;6.97;;;;;;;-143.83;100.00;62900.06;5112214;28;20026;-63
2022/08/02 05:50:11;;;;;;;7.53;7.22;;;;;;;-143.83;100.00;62900.06;5111796;28;20015;-63
2022/08/02 05:53:08;;;;;;;7.13;6.82;;;;;;;-143.83;100.00;62900.06;5112282;28;20037;-64
2022/08/02 05:55:39;;;;;;;7.30;7.00;;;;;;;-143.83;100.00;62900.06;5104358;28;20023;-64
2022/08/02 05:58:26;;;;;;;7.65;7.35;;;;;;;-143.83;100.00;62900.06;5095255;28;20035;-64
2022/08/02 06:00:54;;;;;;;7.60;7.30;;;;;;;-143.83;100.00;62900.06;5103945;27;20032;-65
2022/08/02 06:03:35;;;;;;;7.70;7.40;;;;;;;-143.83;100.00;62900.06;5104724;28;20038;-64
2022/08/02 06:06:12;;;;;;;7.32;7.03;;;;;;;-143.83;100.00;62900.06;5105872;27;20110;-64
2022/08/02 06:08:48;;;;;;;7.75;7.45;;;;;;;-143.83;100.00;62900.06;5111231;27;20030;-64
2022/08/02 06:11:16;;;;;;;7.82;7.53;;;;;;;-143.83;100.00;62900.06;5106585;28;20071;-65
2022/08/02 06:13:41;;;;;;;7.53;7.22;;;;;;;-143.83;100.00;62900.06;5100839;28;20496;-66
2022/08/02 06:16:08;;;;;;;7.07;6.78;;;;;;;-143.83;100.00;62900.06;5108035;27;20039;-64
2022/08/02 06:18:35;;;;;;;7.10;6.80;;;;;;;-143.83;100.00;62900.06;5110010;28;20106;-64
2022/08/02 06:21:03;;;;;;;7.57;7.28;;;;;;;-143.83;100.00;62900.06;5109084;28;20560;-65
2022/08/02 06:23:30;;;;;;;7.55;7.25;;;;;;;-143.83;100.00;62900.06;5114019;27;20105;-64
2022/08/02 06:25:57;;;;;;;6.95;6.65;;;;;;;-143.83;100.00;62900.06;5108379;27;20034;-64
2022/08/02 06:28:23;;;;;;;7.38;7.07;;;;;;;-143.83;100.00;62900.06;5108876;28;20080;-64
2022/08/02 06:30:49;;;;;;;7.70;7.40;;;;;;;-143.83;100.00;62900.06;5105519;28;20020;-64
2022/08/02 06:33:15;;;;;;;7.30;7.00;;;;;;;-143.83;100.00;62900.06;5106908;28;20027;-64
2022/08/02 06:35:52;;;;;;;8.20;7.90;;;;;;;-143.83;100.00;62900.06;5108455;27;20122;-65
2022/08/02 06:38:22;;;;;;;7.88;7.57;;;;;;;-143.83;100.00;62900.06;5097860;28;20027;-64
2022/08/02 06:41:08;;;;;;;7.75;7.45;;;;;;;-143.83;100.00;62900.06;5107393;28;20099;-64
2022/08/02 06:43:39;;;;;;;7.60;7.30;;;;;;;-143.83;100.00;62900.06;5106815;28;20106;-64
2022/08/02 06:46:04;;;;;;;7.60;7.30;;;;;;;-143.83;100.00;62900.06;5108105;27;20039;-62
2022/08/02 06:48:34;;;;;;;7.80;7.50;;;;;;;-143.83;100.00;62900.06;5107903;28;20028;-62
2022/08/02 06:51:01;;;;;;;8.10;7.80;;;;;;;-143.83;100.00;62900.06;5102969;28;20039;-64
2022/08/02 06:53:26;;;;;;;7.45;7.15;;;;;;;-143.83;100.00;62900.06;5105355;28;20035;-63
2022/08/02 06:55:52;;;;;;;7.55;7.25;;;;;;;-143.83;100.00;62900.06;5100476;28;20028;-63
2022/08/02 06:58:17;;;;;;;7.50;7.20;;;;;;;-143.83;100.00;62900.06;5096694;28;20395;-64
2022/08/02 07:00:43;;;;;;;8.05;7.75;;;;;;;-143.83;100.00;62900.06;5092623;28;20059;-64
2022/08/02 07:03:08;;;;;;;7.68;7.38;;;;;;;-143.83;100.00;62900.06;5090275;28;20501;-64
2022/08/02 07:05:34;;;;;;;7.70;7.40;;;;;;;-143.83;100.00;62900.06;5091167;28;20046;-63
2022/08/02 07:08:01;;;;;;;8.13;7.82;;;;;;;-143.83;100.00;62900.06;5088942;28;20495;-63
2022/08/02 07:10:27;;;;;;;7.43;7.13;;;;;;;-143.83;100.00;62900.06;5094274;27;20028;-64
2022/08/02 07:12:52;;;;;;;7.65;7.35;;;;;;;-143.83;100.00;62900.06;5097799;27;20031;-63
2022/08/02 07:15:18;;;;;;;7.72;7.43;;;;;;;-143.83;100.00;62900.06;5096197;27;20124;-63
2022/08/02 07:17:43;;;;;;;7.40;7.10;;;;;;;-143.83;100.00;62900.06;5107293;27;20039;-64
2022/08/02 07:20:09;;;;;;;7.32;7.03;;;;;;;-143.83;100.00;62900.06;5111134;28;20020;-63
2022/08/02 07:22:35;;;;;;;7.47;7.18;;;;;;;-143.83;100.00;62900.06;5112687;27;20027;-63
2022/08/02 07:25:00;;;;;;;7.70;7.40;;;;;;;-143.83;100.00;62900.06;5114797;27;20038;-65
2022/08/02 07:27:27;;;;;;;7.60;7.30;;;;;;;-143.83;100.00;62900.06;5105416;27;20023;-63
2022/08/02 07:29:52;;;;;;;6.97;6.68;;;;;;;-143.83;100.00;62900.06;5111267;27;20019;-64
2022/08/02 07:32:20;;;;;;;8.32;7.95;;;;;;;-143.83;100.00;62900.06;5113783;27;20023;-64
2022/08/02 07:34:47;;;;;;;7.95;7.65;;;;;;;-143.83;100.00;62900.06;5108766;27;20129;-63
2022/08/02 07:37:13;;;;;;;7.32;7.03;;;;;;;-143.83;100.00;62900.06;5118208;27;20038;-64
2022/08/02 07:39:38;;;;;;;7.35;7.05;;;;;;;-143.83;100.00;62900.06;5107304;27;20023;-63
2022/08/02 07:42:04;;;;;;;7.60;7.30;;;;;;;-143.83;100.00;62900.06;5101267;28;20143;-63
2022/08/02 07:44:33;;;;;;;7.50;7.20;;;;;;;-143.83;100.00;62900.06;5108168;28;20114;-63
2022/08/02 07:47:03;;;;;;;7.18;6.88;;;;;;;-143.83;100.00;62900.06;5110627;28;20118;-64
2022/08/02 07:49:29;;;;;;;7.63;7.32;;;;;;;-143.83;100.00;62900.06;5109904;28;20459;-63
2022/08/02 07:51:56;;;;;;;7.30;7.00;;;;;;;-143.83;100.00;62900.06;5109608;28;20038;-64
2022/08/02 07:54:21;;;;;;;7.30;7.00;;;;;;;-143.83;100.00;62900.06;5109051;27;20023;-63
2022/08/02 07:56:47;;;;;;;7.55;7.25;;;;;;;-143.83;100.00;62900.06;5114013;27;20080;-63
2022/08/02 07:59:13;;;;;;;7.47;7.18;;;;;;;-143.83;100.00;62900.06;5101413;27;20081;-64
2022/08/02 08:01:39;;;;;;;7.53;7.22;;;;;;;-143.83;100.00;62900.06;5108371;27;20039;-63
2022/08/02 08:04:05;;;;;;;7.75;7.45;;;;;;;-143.83;100.00;62900.06;5112346;27;20031;-63
2022/08/02 08:06:30;;;;;;;7.80;7.50;;;;;;;-143.83;100.00;62900.06;5111069;27;20042;-63
2022/08/02 08:08:56;;;;;;;7.68;7.38;;;;;;;-143.83;100.00;62900.06;5105195;27;20074;-63
2022/08/02 08:11:22;;;;;;;8.00;7.70;;;;;;;-143.83;100.00;62900.06;5109532;27;20490;-63
2022/08/02 08:13:48;;;;;;;7.50;7.20;;;;;;;-143.83;100.00;62900.06;5106543;27;20035;-63
2022/08/02 08:16:13;;;;;;;7.50;7.20;;;;;;;-143.83;100.00;62900.06;5111493;27;20035;-63
2022/08/02 08:18:39;;;;;;;7.90;7.60;;;;;;;-143.83;100.00;62900.06;5106534;27;20027;-63
2022/08/02 08:21:05;;;;;;;7.50;7.20;;;;;;;-143.83;100.00;62900.06;5110570;27;20076;-63
2022/08/02 08:23:31;;;;;;;7.43;7.13;;;;;;;-143.83;100.00;62900.06;5101931;28;20406;-65
2022/08/02 08:25:56;;;;;;;7.55;7.25;;;;;;;-143.83;100.00;62900.06;5105507;28;20490;-65
2022/08/02 08:28:22;;;;;;;7.57;7.28;;;;;;;-143.83;100.00;62900.06;5107545;28;20039;-64
2022/08/02 08:30:48;;;;;;;7.25;6.95;;;;;;;-143.83;100.00;62900.06;5113873;27;20027;-65
2022/08/02 08:33:13;;;;;;;7.32;7.03;;;;;;;-143.83;100.00;62900.06;5105915;28;20043;-63
2022/08/02 08:35:39;;;;;;;7.30;7.00;;;;;;;-143.83;100.00;62900.06;5115964;27;20027;-63
2022/08/02 08:38:05;;;;;;;7.60;7.30;;;;;;;-143.83;100.00;62900.06;5112457;27;20027;-64
2022/08/02 08:40:30;;;;;;;7.80;7.50;;;;;;;-143.83;100.00;62900.06;5116867;27;20076;-63
2022/08/02 08:42:56;;;;;;;7.28;6.97;;;;;;;-143.83;100.00;62900.06;5107152;27;20440;-63
2022/08/02 08:45:22;;;;;;;7.78;7.47;;;;;;;-143.83;100.00;62900.06;5105073;27;20031;-64
2022/08/02 08:47:55;;;;;;;7.57;7.28;;;;;;;-143.83;100.00;62900.06;5110708;27;20027;-63
2022/08/02 08:50:25;;;;;;;7.60;7.30;;;;;;;-143.83;100.00;62900.06;5106956;28;20467;-63
2022/08/02 08:53:02;;;;;;;7.70;7.40;;;;;;;-143.83;100.00;62900.06;5111488;27;20031;-63
2022/08/02 08:55:29;;;;;;;7.70;7.40;;;;;;;-143.83;100.00;62900.06;5108127;28;20034;-63
2022/08/02 08:57:57;;;;;;;7.50;7.20;;;;;;;-143.83;100.00;62900.06;5117878;27;20103;-63
2022/08/02 09:00:23;;;;;;;7.47;7.18;;;;;;;-143.83;100.00;62900.06;5116268;27;20059;-63
2022/08/02 09:02:49;;;;;;;8.05;7.75;;;;;;;-143.83;100.00;62900.06;5114110;27;20055;-63
2022/08/02 09:05:16;;;;;;;7.90;7.60;;;;;;;-143.83;100.00;62900.06;5107579;27;20034;-63
2022/08/02 09:07:45;;;;;;;7.50;7.20;;;;;;;-143.83;100.00;62900.06;5104091;28;20043;-63
2022/08/02 09:10:46;;;;;;;8.07;7.78;;;;;;;-143.83;100.00;62900.06;5112807;27;20027;-64
2022/08/02 09:13:19;;;;;;;7.80;7.50;;;;;;;-143.83;100.00;62900.06;5108529;27;20031;-63
2022/08/02 09:15:52;;;;;;;7.50;7.20;;;;;;;-143.83;100.00;62900.06;5114168;27;20098;-63
2022/08/02 09:18:17;;;;;;;7.88;7.57;;;;;;;-143.83;100.00;62900.06;5104995;27;20035;-63
2022/08/02 09:20:57;;;;;;;7.80;7.50;;;;;;;-143.83;100.00;62900.06;5109247;27;20023;-63
2022/08/02 09:23:24;;;;;;;7.47;7.18;;;;;;;-143.83;100.00;62900.06;5106395;27;20031;-63
2022/08/02 09:25:57;;;;;;;7.63;7.32;;;;;;;-143.83;100.00;62900.06;5101403;27;20027;-63
2022/08/02 09:28:31;;;;;;;7.70;7.40;;;;;;;-143.83;100.00;62900.06;5113864;27;20530;-63
2022/08/02 09:31:20;;;;;;;7.40;7.10;;;;;;;-143.83;100.00;62900.06;5107762;27;20039;-63
2022/08/02 09:33:57;;;;;;;7.43;7.13;;;;;;;-143.83;100.00;62900.06;5106098;27;20483;-63
2022/08/02 09:36:23;;;;;;;7.32;7.03;;;;;;;-143.83;100.00;62900.06;5105957;27;20467;-64
2022/08/02 09:39:03;;;;;;;7.60;7.30;;;;;;;-143.83;100.00;62900.06;5111607;27;20558;-62
2022/08/02 09:41:32;;;;;;;7.45;7.15;;;;;;;-143.83;100.00;62900.06;5117384;27;20057;-64
2022/08/02 09:43:59;;;;;;;7.10;6.80;;;;;;;-143.83;100.00;62900.06;5105307;27;20040;-62
2022/08/02 09:46:30;;;;;;;7.32;7.03;;;;;;;-143.83;100.00;62900.06;5100244;28;20028;-62
2022/08/02 09:49:01;;;;;;;7.40;7.10;;;;;;;-143.83;100.00;62900.06;5100640;27;20024;-61
2022/08/02 09:51:29;;;;;;;7.15;6.85;;;;;;;-143.83;100.00;62900.06;5098193;27;20024;-61
2022/08/02 09:53:57;;;;;;;7.07;6.78;;;;;;;-143.83;100.00;62900.06;5102997;28;20020;-61
2022/08/02 09:56:25;;;;;;;7.55;7.25;;;;;;;-143.83;100.00;62900.06;5107373;27;20019;-59
2022/08/02 09:58:53;;;;;;;7.10;6.80;;;;;;;-143.83;100.00;62900.06;5119032;27;20064;-61
2022/08/02 10:01:40;;;;;;;6.93;6.63;;;;;;;-143.83;100.00;62900.06;5106345;27;20020;-62
2022/08/02 10:04:09;;;;;;;7.40;7.10;;;;;;;-143.83;100.00;62900.06;5114487;27;20046;-61
2022/08/02 10:06:36;;;;;;;7.63;7.32;;;;;;;-143.83;100.00;62900.06;5110176;28;20031;-62
2022/08/02 10:09:02;;;;;;;7.00;6.70;;;;;;;-143.83;100.00;62900.06;5108619;27;20057;-62
2022/08/02 10:11:28;;;;;;;7.20;6.90;;;;;;;-143.83;100.00;62900.06;5112997;27;20027;-61
2022/08/02 10:13:54;;;;;;;7.20;6.90;;;;;;;-143.83;100.00;62900.06;5109823;27;20047;-60
2022/08/02 10:16:22;;;;;;;7.15;6.85;;;;;;;-143.83;100.00;62900.06;5106436;28;20019;-60
2022/08/02 10:18:57;;;;;;;7.40;7.10;;;;;;;-143.83;100.00;62900.06;5111142;28;20016;-61
2022/08/02 10:21:29;;;;;;;7.10;6.80;;;;;;;-143.83;100.00;62900.06;5110039;28;20463;-60
2022/08/02 10:24:16;;;;;;;7.45;7.15;;;;;;;-143.83;100.00;62900.06;5096585;28;20035;-60
2022/08/02 10:26:44;;;;;;;7.90;7.60;;;;;;;-143.83;100.00;62900.06;5100985;28;20027;-63
2022/08/02 10:29:19;;;;;;;7.45;7.15;;;;;;;-143.83;100.00;62900.06;5103896;27;20461;-64
2022/08/02 10:31:53;;;;;;;7.60;7.30;;;;;;;-143.83;100.00;62900.06;5103010;28;20016;-63
2022/08/02 10:34:23;;;;;;;7.32;7.03;;;;;;;-143.83;100.00;62900.06;5104364;28;20102;-64
2022/08/02 10:36:50;;;;;;;7.20;6.90;;;;;;;-143.83;100.00;62900.06;5114801;27;20031;-63
2022/08/02 10:39:15;;;;;;;7.60;7.30;;;;;;;-143.83;100.00;62900.06;5106359;28;20043;-63
2022/08/02 10:41:43;;;;;;;7.30;7.00;;;;;;;-143.83;100.00;62900.06;5100058;28;20101;-64
2022/08/02 10:44:20;;;;;;;7.22;6.93;;;;;;;-143.83;100.00;62900.06;5108942;28;20031;-64
2022/08/02 10:46:45;;;;;;;7.30;7.00;;;;;;;-143.83;100.00;62900.06;5109432;28;20081;-62
2022/08/02 10:49:19;;;;;;;7.57;7.28;;;;;;;-143.83;100.00;62900.06;5110283;27;20035;-64
2022/08/02 10:51:54;;;;;;;7.50;7.20;;;;;;;-143.83;100.00;62900.06;5110418;27;20518;-64
2022/08/02 10:54:22;;;;;;;7.57;7.28;;;;;;;-143.83;100.00;62900.06;5112329;28;20035;-64
2022/08/02 10:56:49;;;;;;;7.40;7.10;;;;;;;-143.83;100.00;62900.06;5105217;28;20032;-63
2022/08/02 10:59:30;;;;;;;7.72;7.43;;;;;;;-143.83;100.00;62900.06;5111060;27;20186;-66
2022/08/02 11:02:01;;;;;;;7.38;7.07;;;;;;;-143.83;100.00;62900.06;5109280;28;20031;-65
2022/08/02 11:04:35;;;;;;;7.18;6.88;;;;;;;-143.83;100.00;62900.06;5112120;27;20071;-65
2022/08/02 11:07:30;;;;;;;8.00;7.70;;;;;;;-143.83;100.00;62900.06;5111223;28;20027;-63
2022/08/02 11:09:58;;;;;;;;;;;;;;;-143.83;100.00;62900.06;5102433;28;20374;-63
2022/08/02 11:12:23;;;;;;;7.30;7.00;;;;;;;-143.83;100.00;62900.06;5112414;28;19907;-63
2022/08/02 11:15:00;;;;;;;7.60;7.30;;;;;;;-143.83;100.00;62900.06;5111184;27;20126;-64
2022/08/02 11:17:27;;;;;;;7.53;7.22;;;;;;;-143.83;100.00;62900.06;5111727;27;20122;-63
2022/08/02 11:20:11;;;;;;;7.80;7.50;;;;;;;-143.83;100.00;62900.06;5107808;27;20073;-64